createdAt,value
2022-11-15T09:31:35.761Z,8.60
2022-11-15T09:34:02.797Z,8.60
2022-11-15T09:36:29.543Z,8.04
2022-11-15T09:38:59.173Z,7.92
2022-11-15T09:41:26.021Z,7.95
2022-11-15T09:44:14.172Z,7.94
2022-11-15T09:47:03.570Z,7.91
2022-11-15T09:49:32.877Z,7.80
2022-11-15T09:52:00.315Z,7.87
2022-11-15T09:57:25.461Z,8.00
2022-11-15T10:00:43.961Z,8.10
2022-11-15T10:03:05.454Z,8.05
2022-11-15T10:05:36.130Z,8.19
2022-11-15T10:08:23.537Z,8.24
2022-11-15T10:11:15.816Z,8.37
2022-11-15T10:13:48.680Z,8.39
2022-11-15T10:16:27.538Z,8.40
2022-11-15T10:19:24.920Z,8.34
2022-11-15T10:21:57.559Z,8.41
2022-11-15T10:24:33.104Z,8.38
2022-11-15T10:26:59.875Z,8.36
2022-11-15T10:29:27.478Z,8.35
2022-11-15T10:31:54.763Z,8.31
2022-11-15T10:34:27.674Z,8.31
2022-11-15T10:37:00.228Z,8.30
2022-11-15T10:39:27.068Z,8.34
2022-11-15T10:41:54.196Z,8.35
2022-11-15T10:44:23.094Z,8.38
2022-11-15T10:46:55.801Z,8.31
2022-11-15T10:49:33.888Z,8.28
2022-11-15T10:52:12.756Z,8.22
2022-11-15T10:54:44.044Z,8.24
2022-11-15T10:57:20.222Z,8.20
2022-11-15T10:59:49.975Z,8.16
2022-11-15T11:02:57.962Z,8.12
2022-11-15T11:05:30.045Z,8.10
2022-11-15T11:08:14.002Z,8.04
2022-11-15T11:10:58.572Z,8.04
2022-11-15T11:13:32.340Z,8.07
2022-11-15T11:16:27.010Z,8.04
2022-11-15T11:19:12.355Z,8.10
2022-11-15T11:22:17.655Z,8.09
2022-11-15T11:24:44.330Z,8.16
2022-11-15T11:27:37.462Z,8.19
2022-11-15T11:30:21.079Z,8.17
2022-11-15T11:33:11.308Z,8.23
2022-11-15T11:36:00.908Z,8.08
2022-11-15T11:38:42.780Z,8.15
2022-11-15T11:41:21.766Z,8.10
2022-11-15T11:43:51.720Z,8.12
2022-11-15T11:46:39.798Z,8.07
2022-11-15T11:49:41.960Z,8.09
2022-11-15T11:52:18.062Z,8.09
2022-11-15T11:55:12.297Z,8.14
2022-11-15T11:57:50.365Z,8.17
2022-11-15T12:00:28.593Z,8.11
2022-11-15T12:03:12.719Z,8.03
2022-11-15T12:05:47.913Z,8.10
2022-11-15T12:08:30.156Z,8.17
2022-11-15T12:11:09.709Z,8.15
2022-11-15T12:13:38.202Z,8.25
2022-11-15T12:16:21.116Z,8.21
2022-11-15T12:18:53.638Z,8.31
2022-11-15T12:21:33.773Z,8.33
2022-11-15T12:24:06.853Z,8.29
2022-11-15T12:26:46.925Z,8.29
2022-11-15T12:29:38.629Z,8.28
2022-11-15T12:32:12.626Z,8.25
2022-11-15T12:34:44.999Z,8.27
2022-11-15T12:37:36.827Z,8.25
2022-11-15T12:40:22.607Z,8.28
2022-11-15T12:43:15.022Z,8.22
2022-11-15T12:45:46.871Z,8.25
2022-11-15T12:48:16.724Z,8.24
2022-11-15T12:50:55.421Z,8.22
2022-11-15T12:53:25.506Z,8.22
2022-11-15T12:56:10.469Z,8.25
2022-11-15T12:59:03.295Z,8.08
2022-11-15T15:43:33.255Z,7.92
2022-11-15T15:46:00.318Z,7.92
2022-11-15T15:48:27.115Z,7.25
2022-11-15T15:50:54.083Z,7.34
2022-11-15T16:14:27.115Z,7.96
2022-11-15T16:16:54.167Z,7.96
2022-11-15T16:19:20.920Z,7.33
2022-11-15T16:21:47.724Z,7.34
2022-11-15T16:24:14.514Z,7.24
2022-11-15T16:26:41.466Z,7.28
2022-11-15T16:29:10.323Z,7.17
2022-11-15T16:31:37.625Z,7.23
2022-11-15T16:34:04.616Z,7.27
2022-11-15T16:36:34.612Z,7.33
2022-11-15T16:39:05.361Z,7.27
2022-11-15T16:41:32.264Z,7.33
2022-11-15T16:43:59.250Z,7.28
